createdAt,value
2018-12-11T00:01:33.292Z,97087.04
2018-12-11T00:04:04.825Z,97088.03
2018-12-11T00:06:34.368Z,97090.71
2018-12-11T00:09:05.394Z,97089.73
2018-12-11T00:11:35.053Z,97094.27
2018-12-11T00:14:04.524Z,97098.30
2018-12-11T00:16:34.078Z,97080.08
2018-12-11T00:19:03.590Z,97088.14
2018-12-11T00:21:32.986Z,97096.20
2018-12-11T00:24:02.419Z,97091.66
2018-12-11T00:26:32.016Z,97093.99
2018-12-11T00:29:01.448Z,97087.27
2018-12-11T00:31:30.850Z,97090.08
2018-12-11T00:34:00.281Z,97078.62
2018-12-11T00:36:29.692Z,97096.41
2018-12-11T00:38:59.148Z,97089.57
2018-12-11T00:41:28.564Z,97088.34
2018-12-11T00:43:58.003Z,97091.03
2018-12-11T00:46:27.453Z,97091.51
2018-12-11T00:48:56.872Z,97091.15
2018-12-11T00:51:26.268Z,97086.73
2018-12-11T00:53:55.746Z,97089.92
2018-12-11T00:56:25.340Z,97093.95
2018-12-11T00:58:54.751Z,97099.33
2018-12-11T01:01:25.003Z,97102.97
2018-12-11T01:03:55.556Z,97101.14
2018-12-11T01:06:26.804Z,97101.62
2018-12-11T01:08:56.240Z,97114.58
2018-12-11T01:11:26.670Z,97116.40
2018-12-11T01:13:56.163Z,97113.35
2018-12-11T01:16:26.048Z,97112.95
2018-12-11T01:18:55.644Z,97116.04
2018-12-11T01:21:25.148Z,97113.94
2018-12-11T01:23:54.546Z,97113.44
2018-12-11T01:26:23.988Z,97113.08
2018-12-11T01:28:53.509Z,97110.86
2018-12-11T01:31:22.936Z,97112.09
2018-12-11T01:33:52.344Z,97109.05
2018-12-11T01:36:21.817Z,97114.42
2018-12-11T01:38:51.220Z,97109.41
2018-12-11T01:41:20.676Z,97109.52
2018-12-11T01:43:50.069Z,97105.88
2018-12-11T01:46:19.508Z,97113.94
2018-12-11T01:48:49.975Z,97109.05
2018-12-11T01:51:19.396Z,97112.68
2018-12-11T01:53:48.800Z,97110.98
2018-12-11T01:56:18.244Z,97114.89
2018-12-11T01:58:47.687Z,97111.34
2018-12-11T02:01:17.093Z,97106.08
2018-12-11T02:03:46.512Z,97112.68
2018-12-11T02:06:15.945Z,97111.92
2018-12-11T02:08:45.360Z,97105.72
2018-12-11T02:11:14.792Z,97106.55
2018-12-11T02:13:44.208Z,97104.73
2018-12-11T02:16:13.629Z,97108.29
2018-12-11T02:18:43.038Z,97100.34
2018-12-11T02:21:12.457Z,97105.21
2018-12-11T02:23:41.869Z,97099.00
2018-12-11T02:26:11.270Z,97098.61
2018-12-11T02:28:41.737Z,97111.56
2018-12-11T02:31:11.158Z,97112.91
2018-12-11T02:33:40.589Z,97117.42
2018-12-11T02:36:09.996Z,97119.75
2018-12-11T02:38:39.440Z,97112.52
2018-12-11T02:41:08.888Z,97113.03
2018-12-11T02:43:38.377Z,97106.31
2018-12-11T02:46:07.796Z,97089.69
2018-12-11T02:48:37.243Z,97079.92
2018-12-11T02:51:06.665Z,97081.27
2018-12-11T02:53:37.228Z,97078.58
2018-12-11T02:56:06.646Z,97076.84
2018-12-11T02:58:36.106Z,97071.47
2018-12-11T03:01:05.530Z,97075.02
2018-12-11T03:03:34.957Z,97075.02
2018-12-11T03:06:05.447Z,97075.50
2018-12-11T03:08:34.873Z,97068.78
2018-12-11T03:11:04.280Z,97071.47
2018-12-11T03:13:33.729Z,97078.70
2018-12-11T03:16:03.150Z,97072.81
2018-12-11T03:18:32.569Z,97065.73
2018-12-11T03:21:01.982Z,97074.27
2018-12-11T03:23:31.396Z,97076.95
2018-12-11T03:26:00.810Z,97084.06
2018-12-11T03:28:30.205Z,97080.52
2018-12-11T03:31:00.755Z,97081.47
2018-12-11T03:33:30.152Z,97084.15
2018-12-11T03:35:59.556Z,97080.63
2018-12-11T03:38:28.979Z,97087.82
2018-12-11T03:40:58.462Z,97089.16
2018-12-11T03:43:27.878Z,97086.48
2018-12-11T03:45:57.277Z,97077.08
2018-12-11T03:48:26.688Z,97084.66
2018-12-11T03:50:56.103Z,97078.42
2018-12-11T03:53:25.674Z,97067.28
2018-12-11T03:55:55.171Z,97060.56
2018-12-11T03:58:24.573Z,97060.56
2018-12-11T04:00:53.976Z,97059.22
2018-12-11T04:03:23.414Z,97070.83
2018-12-11T04:05:52.833Z,97074.39
2018-12-11T04:08:22.250Z,97080.35
2018-12-11T04:10:51.658Z,97081.22
2018-12-11T04:13:21.062Z,97076.33
2018-12-11T04:15:50.522Z,97073.24
2018-12-11T04:18:20.326Z,97070.56
2018-12-11T04:20:49.825Z,97058.47
2018-12-11T04:23:19.236Z,97060.80
2018-12-11T04:25:49.796Z,97049.58
2018-12-11T04:28:19.196Z,97052.86
2018-12-11T04:30:48.627Z,97057.24
2018-12-11T04:33:18.033Z,97052.73
2018-12-11T04:35:47.435Z,97058.23
2018-12-11T04:38:16.860Z,97051.44
2018-12-11T04:40:46.256Z,97063.20
2018-12-11T04:43:15.699Z,97061.86
2018-12-11T04:45:45.101Z,97067.71
2018-12-11T04:48:14.576Z,97060.52
2018-12-11T04:50:44.001Z,97062.73
2018-12-11T04:53:13.452Z,97073.48
2018-12-11T04:55:42.892Z,97068.81
2018-12-11T04:58:12.354Z,97054.80
2018-12-11T05:00:41.736Z,97052.81
2018-12-11T05:03:11.196Z,97047.72
2018-12-11T05:05:40.639Z,97051.75
2018-12-11T05:08:16.584Z,97049.26
2018-12-11T05:10:46.085Z,97049.49
2018-12-11T05:13:15.539Z,97047.28
2018-12-11T05:15:44.957Z,97050.44
2018-12-11T05:18:14.437Z,97049.69
2018-12-11T05:20:43.860Z,97047.00
2018-12-11T05:23:13.288Z,97039.06
2018-12-11T05:25:43.564Z,97039.54
2018-12-11T05:28:13.032Z,97042.34
2018-12-11T05:30:42.433Z,97042.81
2018-12-11T05:33:11.886Z,97038.78
2018-12-11T05:35:41.301Z,97042.81
2018-12-11T05:38:10.723Z,97043.80
2018-12-11T05:40:40.128Z,97052.21
2018-12-11T05:43:09.546Z,97050.51
2018-12-11T05:45:38.940Z,97038.90
2018-12-11T05:48:08.344Z,97038.51
2018-12-11T05:50:37.776Z,97030.96
2018-12-11T05:53:07.204Z,97034.98
2018-12-11T05:55:36.617Z,97035.94
2018-12-11T05:58:06.011Z,97033.25
2018-12-11T06:00:35.484Z,97029.23
2018-12-11T06:03:04.883Z,97030.20
2018-12-11T06:05:34.369Z,97026.66
2018-12-11T06:08:03.865Z,97030.20
2018-12-11T06:10:33.335Z,97024.72
2018-12-11T06:13:02.739Z,97027.88
2018-12-11T06:15:32.173Z,97022.04
2018-12-11T06:18:01.573Z,97020.30
2018-12-11T06:20:30.985Z,97021.17
2018-12-11T06:23:00.396Z,97023.06
2018-12-11T06:25:29.826Z,97025.52
2018-12-11T06:27:59.241Z,97033.38
2018-12-11T06:30:28.652Z,97031.92
2018-12-11T06:32:58.064Z,97026.08
2018-12-11T06:35:27.471Z,97027.30
2018-12-11T06:37:56.879Z,97025.95
2018-12-11T06:40:26.309Z,97025.09
2018-12-11T06:42:55.709Z,97022.41
2018-12-11T06:45:25.113Z,97021.34
2018-12-11T06:47:54.552Z,97018.77
2018-12-11T06:50:26.017Z,97025.13
2018-12-11T06:52:55.505Z,97025.20
2018-12-11T06:55:24.912Z,97024.45
2018-12-11T06:57:54.355Z,97030.58
2018-12-11T07:00:23.788Z,97023.47
2018-12-11T07:02:53.212Z,97028.37
2018-12-11T07:05:22.660Z,97028.25
2018-12-11T07:07:52.101Z,97024.73
2018-12-11T07:10:21.505Z,97030.46
2018-12-11T07:12:50.927Z,97029.00
2018-12-11T07:15:20.377Z,97034.29
2018-12-11T07:17:49.893Z,97033.42
2018-12-11T07:20:19.296Z,97037.45
2018-12-11T07:22:48.722Z,97041.48
2018-12-11T07:25:18.144Z,97040.02
2018-12-11T07:27:47.567Z,97040.50
2018-12-11T07:30:16.968Z,97035.36
2018-12-11T07:32:46.429Z,97034.21
2018-12-11T07:35:15.841Z,97039.86
2018-12-11T07:37:45.344Z,97038.80
2018-12-11T07:40:14.752Z,97031.22
2018-12-11T07:42:44.338Z,97034.49
2018-12-11T07:45:13.764Z,97034.72
2018-12-11T07:47:43.196Z,97032.67
2018-12-11T07:50:12.609Z,97026.98
2018-12-11T07:52:42.027Z,97031.84
2018-12-11T07:55:11.462Z,97025.13
2018-12-11T07:57:40.865Z,97035.05
2018-12-11T08:00:10.284Z,97029.59
2018-12-11T08:02:40.736Z,97023.98
2018-12-11T08:05:10.184Z,97034.49
2018-12-11T08:07:39.593Z,97028.09
2018-12-11T08:10:09.017Z,97029.27
2018-12-11T08:12:38.409Z,97026.34
2018-12-11T08:15:07.846Z,97033.53
2018-12-11T08:17:37.228Z,97032.66
2018-12-11T08:20:06.801Z,97026.06
2018-12-11T08:22:36.203Z,97031.04
2018-12-11T08:25:05.719Z,97039.02
2018-12-11T08:27:35.118Z,97030.96
2018-12-11T08:30:04.692Z,97038.51
2018-12-11T08:32:34.113Z,97042.53
2018-12-11T08:35:03.540Z,97040.24
2018-12-11T08:37:32.953Z,97038.34
2018-12-11T08:40:02.426Z,97047.07
2018-12-11T08:42:31.866Z,97049.64
2018-12-11T08:45:01.329Z,97045.61
2018-12-11T08:47:30.754Z,97041.11
2018-12-11T08:50:00.176Z,97042.92
2018-12-11T08:52:29.794Z,97046.48
2018-12-11T08:54:59.216Z,97052.69
2018-12-11T08:57:28.642Z,97041.11
2018-12-11T08:59:58.028Z,97048.30
2018-12-11T09:02:27.653Z,97051.34
2018-12-11T09:04:59.215Z,97050.00
2018-12-11T09:07:28.999Z,97049.05
2018-12-11T09:09:58.460Z,97040.99
2018-12-11T09:12:27.893Z,97034.76
2018-12-11T09:14:57.385Z,97038.31
2018-12-11T09:17:26.873Z,97037.33
2018-12-11T09:19:56.286Z,97035.15
2018-12-11T09:22:25.776Z,97034.64
2018-12-11T09:24:55.212Z,97033.30
2018-12-11T09:27:24.654Z,97030.61
2018-12-11T09:29:54.109Z,97028.44
2018-12-11T09:32:23.552Z,97015.44
2018-12-11T09:34:52.952Z,97025.24
2018-12-11T09:37:22.453Z,97015.02
2018-12-11T09:39:51.920Z,97013.55
2018-12-11T09:42:27.742Z,97022.48
2018-12-11T09:44:52.790Z,97015.84
2018-12-11T09:47:22.238Z,97021.13
2018-12-11T09:49:51.699Z,97025.24
2018-12-11T09:52:21.153Z,97023.31
2018-12-11T09:54:50.576Z,97010.16
2018-12-11T09:57:20.016Z,97021.97
2018-12-11T09:59:49.443Z,97023.31
2018-12-11T10:02:18.973Z,97016.59
2018-12-11T10:04:48.397Z,97016.13
2018-12-11T10:07:17.845Z,97019.09
2018-12-11T10:09:47.288Z,97013.71
2018-12-11T10:12:16.813Z,97018.33
2018-12-11T10:14:46.372Z,97014.78
2018-12-11T10:17:15.908Z,97012.80
2018-12-11T10:19:45.342Z,97013.08
2018-12-11T10:22:14.784Z,97014.30
2018-12-11T10:24:44.268Z,97011.03
2018-12-11T10:27:14.039Z,97016.17
2018-12-11T10:29:43.552Z,97016.56
2018-12-11T10:32:12.982Z,97009.38
2018-12-11T10:34:43.719Z,97014.23
2018-12-11T10:37:13.150Z,97023.55
2018-12-11T10:39:42.673Z,97021.45
2018-12-11T10:42:12.084Z,97021.54
2018-12-11T10:44:42.368Z,97021.66
2018-12-11T10:47:11.873Z,97022.41
2018-12-11T10:49:41.312Z,97011.07
2018-12-11T10:52:10.774Z,97008.39
2018-12-11T10:54:40.208Z,97002.06
2018-12-11T10:57:09.704Z,97006.92
2018-12-11T10:59:39.149Z,97002.81
2018-12-11T11:02:13.622Z,97001.39
2018-12-11T11:04:43.106Z,97000.91
2018-12-11T11:07:12.576Z,97001.47
2018-12-11T11:09:42.077Z,96993.02
2018-12-11T11:12:20.625Z,97000.97
2018-12-11T11:14:50.675Z,96993.21
2018-12-11T11:17:20.280Z,96991.75
2018-12-11T11:19:49.846Z,97003.36
2018-12-11T11:22:19.292Z,96997.63
2018-12-11T11:24:48.774Z,96991.28
2018-12-11T11:27:18.292Z,96995.19
2018-12-11T11:29:47.714Z,96991.55
2018-12-11T11:32:25.129Z,96989.34
2018-12-11T11:35:00.689Z,96990.20
2018-12-11T11:37:31.994Z,96993.25
2018-12-11T11:42:43.020Z,96981.78
2018-12-11T11:45:17.971Z,96986.20
2018-12-11T11:47:50.701Z,96988.41
2018-12-11T11:50:20.644Z,96985.72
2018-12-11T11:52:50.468Z,96989.75
2018-12-11T11:55:19.877Z,96982.17
2018-12-11T11:57:49.312Z,96976.33
2018-12-11T12:00:19.280Z,96983.04
2018-12-11T12:02:49.896Z,96976.91
2018-12-11T12:05:19.352Z,96972.38
2018-12-11T12:07:49.065Z,96974.31
2018-12-11T12:10:21.097Z,96973.69
2018-12-11T12:12:50.644Z,96974.52
2018-12-11T12:15:20.147Z,96953.70
2018-12-11T12:17:50.611Z,96969.80
2018-12-11T12:20:20.004Z,96963.36
2018-12-11T12:22:49.476Z,96950.05
2018-12-11T12:25:18.893Z,96971.66
2018-12-11T12:27:48.377Z,96965.42
2018-12-11T12:30:17.817Z,96955.66
2018-12-11T12:32:47.238Z,96958.43
2018-12-11T12:35:16.658Z,96965.53
2018-12-11T12:37:46.128Z,96955.55
2018-12-11T12:40:15.561Z,96962.61
2018-12-11T12:42:45.017Z,96964.34
2018-12-11T12:45:14.449Z,96969.72
2018-12-11T12:47:44.996Z,96970.50
2018-12-11T12:50:14.420Z,96978.92
2018-12-11T12:52:43.837Z,96974.41
2018-12-11T12:55:13.289Z,96986.02
2018-12-11T12:57:42.745Z,96982.35
2018-12-11T13:00:12.268Z,96976.98
2018-12-11T13:02:42.192Z,96981.76
2018-12-11T13:05:11.652Z,96973.70
2018-12-11T13:07:41.072Z,96977.73
2018-12-11T13:10:10.528Z,96976.03
2018-12-11T13:12:40.296Z,96973.70
2018-12-11T13:15:09.780Z,96987.88
2018-12-11T13:17:39.280Z,96990.84
2018-12-11T13:20:08.693Z,96983.65
2018-12-11T13:22:38.092Z,96996.60
2018-12-11T13:25:07.582Z,96993.80
2018-12-11T13:27:37.021Z,96987.67
2018-12-11T13:30:06.486Z,96998.42
2018-12-11T13:32:35.920Z,97000.24
2018-12-11T13:35:05.382Z,97010.03
2018-12-11T13:37:34.794Z,97014.54
2018-12-11T13:40:04.368Z,97017.22
2018-12-11T13:42:33.960Z,97013.55
2018-12-11T13:45:03.479Z,97022.00
2018-12-11T13:47:34.043Z,97023.70
2018-12-11T13:50:06.641Z,97040.22
2018-12-11T13:52:36.076Z,97050.48
2018-12-11T13:55:09.187Z,97045.11
2018-12-11T13:57:38.916Z,97047.30
2018-12-11T14:00:08.353Z,97052.66
2018-12-11T14:02:37.980Z,97058.43
2018-12-11T14:05:07.437Z,97052.58
2018-12-11T14:07:36.917Z,97053.92
2018-12-11T14:10:06.405Z,97058.91
2018-12-11T14:12:35.928Z,97062.81
2018-12-11T14:15:06.392Z,97063.80
2018-12-11T14:17:35.824Z,97068.19
2018-12-11T14:20:07.368Z,97072.61
2018-12-11T14:22:38.808Z,97075.30
2018-12-11T14:25:08.347Z,97080.20
2018-12-11T14:27:37.755Z,97079.80
2018-12-11T14:30:11.220Z,97073.48
2018-12-11T14:32:40.623Z,97080.67
2018-12-11T14:35:10.120Z,97081.03
2018-12-11T14:37:39.617Z,97077.59
2018-12-11T14:40:09.045Z,97080.79
2018-12-11T14:42:38.563Z,97073.05
2018-12-11T14:45:08.450Z,97075.25
2018-12-11T14:47:39.140Z,97075.73
2018-12-11T14:50:09.562Z,97074.86
2018-12-11T14:52:39.137Z,97075.61
2018-12-11T14:55:08.717Z,97069.38
2018-12-11T14:57:38.768Z,97068.90
2018-12-11T15:00:09.506Z,97069.77
2018-12-11T15:02:39.757Z,97072.34
2018-12-11T15:05:11.099Z,97082.22
2018-12-11T15:07:40.619Z,97073.68
2018-12-11T15:10:12.398Z,97071.86
2018-12-11T15:12:41.872Z,97078.94
2018-12-11T15:15:11.516Z,97086.41
2018-12-11T15:17:40.960Z,97088.26
2018-12-11T15:20:10.423Z,97093.12
2018-12-11T15:22:39.911Z,97089.37
2018-12-11T15:25:09.372Z,97085.93
2018-12-11T15:27:39.433Z,97087.27
2018-12-11T15:30:09.007Z,97088.14
2018-12-11T15:32:38.437Z,97097.91
2018-12-11T15:35:07.916Z,97096.09
2018-12-11T15:37:37.336Z,97098.77
2018-12-11T15:40:07.276Z,97095.22
2018-12-11T15:42:37.745Z,97096.09
2018-12-11T15:45:07.252Z,97108.65
2018-12-11T15:47:36.671Z,97101.58
2018-12-11T15:50:06.905Z,97104.37
2018-12-11T15:52:36.324Z,97099.09
2018-12-11T15:55:06.338Z,97111.69
2018-12-11T15:57:36.801Z,97108.12
2018-12-11T16:00:09.224Z,97104.30
2018-12-11T16:02:38.689Z,97104.81
2018-12-11T16:05:08.423Z,97111.52
2018-12-11T16:07:37.943Z,97114.56
2018-12-11T16:10:08.239Z,97113.62
2018-12-11T16:12:37.648Z,97107.14
2018-12-11T16:15:07.240Z,97112.44
2018-12-11T16:17:36.657Z,97123.19
2018-12-11T16:20:06.167Z,97125.36
2018-12-11T16:22:35.590Z,97113.78
2018-12-11T16:25:05.197Z,97119.04
2018-12-11T16:27:35.013Z,97116.62
2018-12-11T16:30:04.717Z,97115.17
2018-12-11T16:32:34.157Z,97118.72
2018-12-11T16:35:03.813Z,97107.98
2018-12-11T16:37:33.508Z,97117.27
2018-12-11T16:40:04.725Z,97130.23
2018-12-11T16:42:34.658Z,97123.00
2018-12-11T16:45:04.148Z,97123.67
2018-12-11T16:47:34.561Z,97127.31
2018-12-11T16:50:04.582Z,97124.50
2018-12-11T16:52:34.950Z,97134.30
2018-12-11T16:55:04.388Z,97129.41
2018-12-11T16:57:34.846Z,97127.95
2018-12-11T17:00:04.678Z,97136.40
2018-12-11T17:02:35.327Z,97134.19
2018-12-11T17:05:04.776Z,97131.89
2018-12-11T17:07:34.229Z,97135.41
2018-12-11T17:10:03.716Z,97138.10
2018-12-11T17:12:33.350Z,97142.41
2018-12-11T17:15:03.045Z,97144.23
2018-12-11T17:17:32.807Z,97146.55
2018-12-11T17:20:02.290Z,97142.52
2018-12-11T17:22:32.871Z,97153.63
2018-12-11T17:25:03.364Z,97145.21
2018-12-11T17:27:32.784Z,97151.54
2018-12-11T17:30:02.269Z,97161.22
2018-12-11T17:32:31.755Z,97159.41
2018-12-11T17:35:01.231Z,97156.72
2018-12-11T17:37:30.725Z,97153.55
2018-12-11T17:40:00.208Z,97153.91
2018-12-11T17:42:29.749Z,97159.28
2018-12-11T17:44:59.211Z,97156.23
2018-12-11T17:47:28.636Z,97150.36
2018-12-11T17:49:58.081Z,97149.52
2018-12-11T17:52:27.523Z,97144.14
2018-12-11T17:54:57.352Z,97151.98
2018-12-11T17:57:26.789Z,97144.08
2018-12-11T17:59:56.269Z,97151.86
2018-12-11T18:02:30.793Z,97156.40
2018-12-11T18:05:00.566Z,97164.07
2018-12-11T18:07:30.034Z,97164.55
2018-12-11T18:10:00.088Z,97156.59
2018-12-11T18:12:29.648Z,97162.84
2018-12-11T18:14:59.228Z,97161.11
2018-12-11T18:17:28.742Z,97161.22
2018-12-11T18:19:59.877Z,97162.09
2018-12-11T18:22:29.921Z,97164.02
2018-12-11T18:25:00.494Z,97160.47
2018-12-11T18:27:31.320Z,97168.05
2018-12-11T18:30:02.068Z,97167.07
2018-12-11T18:32:32.019Z,97157.78
2018-12-11T18:35:02.788Z,97159.99
2018-12-11T18:37:32.561Z,97159.13
2018-12-11T18:40:02.364Z,97162.80
2018-12-11T18:42:33.037Z,97163.04
2018-12-11T18:45:03.455Z,97170.27
2018-12-11T18:47:34.482Z,97156.83
2018-12-11T18:50:05.574Z,97156.44
2018-12-11T18:52:35.145Z,97150.20
2018-12-11T18:55:04.797Z,97163.04
2018-12-11T18:57:34.747Z,97158.17
2018-12-11T19:00:05.469Z,97161.34
2018-12-11T19:02:36.249Z,97169.77
2018-12-11T19:05:05.927Z,97171.61
2018-12-11T19:07:35.403Z,97172.45
2018-12-11T19:10:05.790Z,97169.28
2018-12-11T19:12:35.828Z,97175.14
2018-12-11T19:15:06.524Z,97169.28
2018-12-11T19:17:36.753Z,97168.41
2018-12-11T19:20:07.386Z,97146.92
2018-12-11T19:22:37.665Z,97170.16
2018-12-11T19:25:12.315Z,97163.91
2018-12-11T19:27:41.832Z,97155.84
2018-12-11T19:30:11.353Z,97157.19
2018-12-11T19:32:43.117Z,97162.56
2018-12-11T19:35:13.688Z,97165.64
2018-12-11T19:37:45.321Z,97166.01
2018-12-11T19:40:15.310Z,97161.98
2018-12-11T19:42:46.226Z,97150.36
2018-12-11T19:45:17.185Z,97159.68
2018-12-11T19:47:47.285Z,97153.91
2018-12-11T19:50:17.510Z,97156.59
2018-12-11T19:52:48.296Z,97146.72
2018-12-11T19:55:18.582Z,97154.30
2018-12-11T19:57:48.225Z,97145.48
2018-12-11T20:00:17.806Z,97143.32
2018-12-11T20:02:47.466Z,97144.39
2018-12-11T20:05:17.207Z,97143.16
2018-12-11T20:07:47.875Z,97144.98
2018-12-11T20:10:19.774Z,97138.27
2018-12-11T20:12:49.406Z,97146.83
2018-12-11T20:15:18.982Z,97147.19
2018-12-11T20:17:49.466Z,97147.08
2018-12-11T20:20:25.347Z,97149.77
2018-12-11T20:22:55.041Z,97141.34
2018-12-11T20:25:24.961Z,97141.70
2018-12-11T20:27:54.816Z,97134.98
2018-12-11T20:30:25.298Z,97139.41
2018-12-11T20:32:54.972Z,97142.09
2018-12-11T20:35:24.517Z,97139.77
2018-12-11T20:37:54.176Z,97145.14
2018-12-11T20:40:23.831Z,97136.13
2018-12-11T20:42:53.368Z,97148.58
2018-12-11T20:45:23.005Z,97161.42
2018-12-11T20:47:52.988Z,97151.19
2018-12-11T20:50:22.615Z,97147.98
2018-12-11T20:52:53.318Z,97157.79
2018-12-11T20:55:25.359Z,97153.28
2018-12-11T20:57:55.431Z,97157.79
2018-12-11T21:00:25.148Z,97157.20
2018-12-11T21:02:56.225Z,97148.73
2018-12-11T21:05:26.376Z,97147.31
2018-12-11T21:07:56.272Z,97149.49
2018-12-11T21:10:25.812Z,97143.28
2018-12-11T21:12:55.429Z,97146.80
2018-12-11T21:15:25.113Z,97148.66
2018-12-11T21:18:08.649Z,97150.84
2018-12-11T21:20:49.396Z,97151.23
2018-12-11T21:23:23.446Z,97153.33
2018-12-11T21:25:53.302Z,97151.00
2018-12-11T21:28:22.920Z,97154.08
2018-12-11T21:30:58.681Z,97161.16
2018-12-11T21:33:30.011Z,97165.11
2018-12-11T21:35:59.565Z,97159.61
2018-12-11T21:38:29.069Z,97169.27
2018-12-11T21:40:58.681Z,97176.85
2018-12-11T21:43:28.810Z,97167.84
2018-12-11T21:45:59.299Z,97171.88
2018-12-11T21:48:37.511Z,97165.98
2018-12-11T21:51:12.348Z,97164.64
2018-12-11T21:53:47.474Z,97160.13
2018-12-11T21:56:18.158Z,97168.79
2018-12-11T21:58:47.781Z,97169.27
2018-12-11T22:01:17.298Z,97168.79
2018-12-11T22:03:52.106Z,97163.53
2018-12-11T22:06:25.380Z,97166.69
2018-12-11T22:08:55.002Z,97168.52
2018-12-11T22:11:24.548Z,97166.45
2018-12-11T22:13:59.638Z,97172.66
2018-12-11T22:16:29.356Z,97172.66
2018-12-11T22:18:58.800Z,97168.63
2018-12-11T22:21:28.249Z,97170.37
2018-12-11T22:23:57.731Z,97168.16
2018-12-11T22:26:27.537Z,97173.05
2018-12-11T22:28:56.964Z,97169.61
2018-12-11T22:31:32.189Z,97166.53
2018-12-11T22:34:05.623Z,97166.05
2018-12-11T22:36:35.436Z,97163.37
2018-12-11T22:39:07.359Z,97168.75
2018-12-11T22:41:37.938Z,97163.01
2018-12-11T22:44:16.941Z,97161.75
2018-12-11T22:46:46.357Z,97159.06
2018-12-11T22:49:15.756Z,97166.17
2018-12-11T22:51:45.284Z,97159.57
2018-12-11T22:54:15.030Z,97160.05
2018-12-11T22:56:48.542Z,97159.17
2018-12-11T22:59:20.637Z,97150.75
2018-12-11T23:01:51.368Z,97144.12
2018-12-11T23:04:21.842Z,97146.45
2018-12-11T23:06:53.337Z,97144.83
2018-12-11T23:09:24.080Z,97144.34
2018-12-11T23:11:55.166Z,97142.25
2018-12-11T23:14:26.570Z,97150.44
2018-12-11T23:16:58.418Z,97143.20
2018-12-11T23:19:28.937Z,97132.84
2018-12-11T23:22:00.034Z,97141.86
2018-12-11T23:24:36.796Z,97132.57
2018-12-11T23:27:08.127Z,97126.72
2018-12-11T23:29:37.811Z,97137.95
2018-12-11T23:32:09.838Z,97138.06
2018-12-11T23:34:39.445Z,97122.41
2018-12-11T23:37:10.217Z,97122.53
2018-12-11T23:39:39.845Z,97127.91
2018-12-11T23:42:10.498Z,97123.12
2018-12-11T23:44:40.089Z,97122.73
2018-12-11T23:47:10.666Z,97132.25
2018-12-11T23:49:40.987Z,97119.69
2018-12-11T23:52:11.007Z,97116.24
2018-12-11T23:54:41.683Z,97115.26
2018-12-11T23:57:11.485Z,97131.38
2018-12-11T23:59:41.057Z,97121.22
